createdAt,value
2018-07-16T00:01:29.295Z,4.40
2018-07-16T00:06:32.637Z,4.73
2018-07-16T00:11:36.505Z,4.70
2018-07-16T00:16:40.078Z,4.83
2018-07-16T00:21:43.321Z,5.40
2018-07-16T00:26:47.453Z,4.03
2018-07-16T00:31:50.841Z,5.37
2018-07-16T00:36:54.384Z,5.00
2018-07-16T00:41:58.421Z,5.63
2018-07-16T00:47:01.650Z,4.07
2018-07-16T00:52:05.361Z,6.40
2018-07-16T00:57:09.663Z,7.40
2018-07-16T01:02:13.352Z,6.13
2018-07-16T01:07:17.075Z,7.03
2018-07-16T01:12:20.446Z,8.00
2018-07-16T01:17:23.778Z,8.00
2018-07-16T01:22:27.446Z,7.47
2018-07-16T01:27:32.910Z,8.00
2018-07-16T01:32:36.413Z,8.53
2018-07-16T01:37:39.665Z,8.50
2018-07-16T01:42:44.658Z,7.43
2018-07-16T01:47:48.085Z,5.67
2018-07-16T01:52:51.362Z,7.57
2018-07-16T01:57:54.849Z,8.47
2018-07-16T02:02:58.489Z,9.67
2018-07-16T02:08:02.013Z,8.70
2018-07-16T02:13:06.023Z,9.17
2018-07-16T02:18:09.549Z,9.30
2018-07-16T02:23:13.113Z,9.43
2018-07-16T02:28:16.729Z,7.20
2018-07-16T02:33:20.758Z,9.73
2018-07-16T02:38:24.270Z,8.33
2018-07-16T02:43:29.771Z,8.57
2018-07-16T02:48:33.340Z,7.73
2018-07-16T02:53:36.755Z,9.60
2018-07-16T02:58:40.477Z,9.40
2018-07-16T03:03:43.814Z,9.50
2018-07-16T03:08:47.098Z,8.30
2018-07-16T03:13:50.545Z,5.53
2018-07-16T03:18:53.878Z,7.47
2018-07-16T03:23:57.313Z,9.10
2018-07-16T03:29:00.908Z,5.60
2018-07-16T03:34:04.507Z,7.80
2018-07-16T03:39:09.251Z,9.00
2018-07-16T03:44:12.677Z,9.97
2018-07-16T03:49:16.227Z,9.27
2018-07-16T03:54:19.487Z,5.87
2018-07-16T03:59:23.234Z,7.80
2018-07-16T04:04:26.917Z,5.20
2018-07-16T04:09:30.663Z,4.40
2018-07-16T04:14:34.114Z,4.23
2018-07-16T04:19:38.158Z,4.10
2018-07-16T04:24:41.435Z,2.63
2018-07-16T04:29:45.078Z,4.77
2018-07-16T04:34:48.363Z,3.50
2018-07-16T04:39:51.676Z,3.70
2018-07-16T04:44:56.395Z,9.30
2018-07-16T04:50:00.128Z,6.03
2018-07-16T04:55:03.427Z,5.90
2018-07-16T05:00:06.960Z,5.63
2018-07-16T05:05:10.833Z,4.10
2018-07-16T05:10:14.068Z,6.17
2018-07-16T05:15:17.357Z,5.40
2018-07-16T05:20:20.650Z,4.60
2018-07-16T05:25:24.322Z,4.70
2018-07-16T05:30:27.747Z,8.27
2018-07-16T05:35:30.993Z,8.40
2018-07-16T05:40:34.194Z,10.83
2018-07-16T05:45:37.898Z,9.37
2018-07-16T05:50:41.210Z,10.87
2018-07-16T05:55:44.783Z,11.67
2018-07-16T06:00:48.010Z,10.43
2018-07-16T06:05:51.223Z,11.33
2018-07-16T06:10:54.510Z,10.67
2018-07-16T06:15:57.935Z,9.37
2018-07-16T06:21:02.069Z,7.17
2018-07-16T06:26:09.296Z,6.40
2018-07-16T06:31:12.787Z,7.20
2018-07-16T06:36:16.028Z,6.60
2018-07-16T06:41:19.437Z,4.80
2018-07-16T06:46:22.762Z,5.13
2018-07-16T06:51:25.965Z,5.50
2018-07-16T06:56:29.196Z,5.17
2018-07-16T07:01:32.717Z,4.77
2018-07-16T07:06:35.917Z,4.03
2018-07-16T07:11:39.336Z,4.23
2018-07-16T07:16:42.641Z,4.70
2018-07-16T07:21:46.014Z,4.77
2018-07-16T07:26:54.487Z,3.83
2018-07-16T07:31:58.826Z,3.80
2018-07-16T07:37:02.085Z,3.50
2018-07-16T07:42:05.495Z,3.73
2018-07-16T07:47:14.367Z,4.00
2018-07-16T07:52:17.733Z,3.80
2018-07-16T07:57:21.070Z,4.63
2018-07-16T08:02:24.577Z,4.90
2018-07-16T08:07:28.625Z,5.63
2018-07-16T08:12:31.846Z,3.80
2018-07-16T08:17:35.236Z,6.03
2018-07-16T08:22:38.545Z,5.03
2018-07-16T08:27:41.807Z,5.30
2018-07-16T08:32:45.041Z,5.43
2018-07-16T08:37:48.966Z,6.30
2018-07-16T08:42:52.339Z,5.97
2018-07-16T08:47:55.878Z,3.70
2018-07-16T08:52:59.184Z,4.67
2018-07-16T08:58:02.526Z,3.80
2018-07-16T09:03:06.213Z,3.83
2018-07-16T09:08:09.475Z,6.47
2018-07-16T09:13:12.768Z,5.60
2018-07-16T09:18:16.929Z,5.87
2018-07-16T09:23:20.255Z,5.27
2018-07-16T09:28:23.557Z,4.20
2018-07-16T09:33:26.977Z,4.40
2018-07-16T09:38:30.247Z,5.57
2018-07-16T09:43:33.518Z,4.20
2018-07-16T09:48:37.993Z,4.73
2018-07-16T09:53:45.523Z,4.07
2018-07-16T09:58:49.069Z,4.70
2018-07-16T10:03:52.464Z,4.13
2018-07-16T10:08:56.541Z,3.93
2018-07-16T10:14:01.145Z,4.53
2018-07-16T10:19:04.742Z,4.50
2018-07-16T10:24:09.257Z,4.00
2018-07-16T10:29:12.480Z,3.87
2018-07-16T10:34:15.753Z,3.80
2018-07-16T10:39:19.048Z,4.00
2018-07-16T10:44:22.252Z,3.67
2018-07-16T10:49:25.710Z,3.37
2018-07-16T10:54:29.342Z,4.07
2018-07-16T10:59:32.699Z,4.80
2018-07-16T11:04:35.951Z,4.43
2018-07-16T11:09:39.663Z,4.33
2018-07-16T11:14:42.832Z,5.00
2018-07-16T11:19:46.134Z,4.60
2018-07-16T11:24:51.877Z,4.43
2018-07-16T11:29:55.087Z,3.40
2018-07-16T11:34:58.498Z,3.47
2018-07-16T11:40:01.996Z,3.90
2018-07-16T11:45:05.413Z,3.67
2018-07-16T11:50:09.086Z,3.23
2018-07-16T11:55:12.355Z,3.03
2018-07-16T12:00:15.881Z,3.10
2018-07-16T12:05:20.070Z,3.73
2018-07-16T12:10:23.312Z,3.87
2018-07-16T12:16:46.261Z,3.80
2018-07-16T12:21:49.583Z,3.10
2018-07-16T12:26:53.000Z,4.07
2018-07-16T12:31:56.276Z,3.00
2018-07-16T12:36:59.681Z,3.60
2018-07-16T12:42:03.021Z,3.20
2018-07-16T12:47:06.461Z,3.20
2018-07-16T12:52:10.449Z,3.70
2018-07-16T12:57:15.050Z,4.00
2018-07-16T13:02:18.431Z,3.50
2018-07-16T13:07:22.030Z,2.50
2018-07-16T13:12:28.427Z,4.13
2018-07-16T13:17:32.260Z,3.03
2018-07-16T13:22:35.730Z,3.20
2018-07-16T13:27:39.092Z,3.20
2018-07-16T13:32:42.499Z,3.30
2018-07-16T13:37:46.979Z,3.60
2018-07-16T13:42:50.831Z,3.80
2018-07-16T13:47:54.323Z,2.63
2018-07-16T13:52:58.106Z,3.50
2018-07-16T13:58:03.775Z,3.50
2018-07-16T14:03:07.266Z,3.60
2018-07-16T14:08:11.272Z,3.23
2018-07-16T14:13:14.730Z,3.07
2018-07-16T14:18:18.925Z,2.97
2018-07-16T14:23:22.772Z,3.00
2018-07-16T14:28:26.270Z,3.37
2018-07-16T14:33:29.732Z,2.17
2018-07-16T14:38:33.237Z,3.33
2018-07-16T14:43:36.718Z,3.10
2018-07-16T14:48:40.753Z,3.20
2018-07-16T14:53:44.864Z,2.63
2018-07-16T14:58:48.454Z,2.57
2018-07-16T15:03:51.946Z,2.60
2018-07-16T15:08:55.481Z,2.47
2018-07-16T15:13:59.027Z,2.70
2018-07-16T15:19:03.000Z,3.00
2018-07-16T15:24:06.702Z,2.93
2018-07-16T15:29:10.177Z,2.93
2018-07-16T15:34:18.136Z,3.03
2018-07-16T15:39:21.945Z,3.10
2018-07-16T15:44:25.539Z,2.70
2018-07-16T15:49:29.062Z,2.87
2018-07-16T15:54:33.051Z,2.60
2018-07-16T15:59:36.667Z,2.73
2018-07-16T16:04:40.110Z,2.37
2018-07-16T16:09:43.502Z,2.60
2018-07-16T16:14:46.854Z,2.37
2018-07-16T16:19:50.246Z,2.83
2018-07-16T16:24:54.192Z,3.50
2018-07-16T16:30:01.419Z,2.77
2018-07-16T16:35:05.148Z,3.23
2018-07-16T16:40:08.481Z,3.10
2018-07-16T16:45:11.826Z,2.70
2018-07-16T16:50:15.222Z,2.70
2018-07-16T16:55:19.105Z,3.10
2018-07-16T17:00:23.269Z,2.90
2018-07-16T17:05:26.507Z,2.93
2018-07-16T17:10:29.754Z,2.63
2018-07-16T17:15:32.970Z,2.83
2018-07-16T17:20:36.214Z,3.10
2018-07-16T17:25:39.629Z,3.30
2018-07-16T17:30:43.090Z,2.70
2018-07-16T17:35:47.297Z,3.20
2018-07-16T17:40:50.813Z,3.30
2018-07-16T17:45:54.056Z,3.23
2018-07-16T17:50:57.481Z,3.17
2018-07-16T17:56:01.121Z,3.10
2018-07-16T18:01:04.761Z,2.87
2018-07-16T18:06:07.985Z,2.90
2018-07-16T18:11:11.266Z,2.97
2018-07-16T18:16:14.479Z,3.07
2018-07-16T18:21:17.781Z,3.00
2018-07-16T18:26:21.450Z,2.90
2018-07-16T18:31:24.970Z,2.70
2018-07-16T18:36:28.202Z,3.33
2018-07-16T18:41:32.187Z,3.17
2018-07-16T18:46:35.665Z,2.77
2018-07-16T18:51:39.130Z,3.13
2018-07-16T18:56:42.467Z,2.97
2018-07-16T19:01:46.583Z,2.80
2018-07-16T19:06:49.897Z,3.17
2018-07-16T19:11:53.169Z,2.80
2018-07-16T19:16:56.440Z,3.80
2018-07-16T19:21:59.873Z,3.50
2018-07-16T19:27:03.432Z,3.87
2018-07-16T19:32:06.704Z,2.90
2018-07-16T19:37:10.268Z,4.10
2018-07-16T19:42:13.554Z,3.50
2018-07-16T19:47:18.692Z,3.80
2018-07-16T19:52:22.042Z,3.60
2018-07-16T19:57:25.544Z,3.73
2018-07-16T20:02:28.857Z,3.90
2018-07-16T20:07:32.433Z,4.50
2018-07-16T20:12:37.504Z,4.77
2018-07-16T20:17:40.760Z,4.00
2018-07-16T20:22:44.043Z,4.30
2018-07-16T20:27:47.426Z,3.60
2018-07-16T20:32:51.300Z,4.20
2018-07-16T20:37:55.984Z,5.13
2018-07-16T20:42:59.494Z,4.30
2018-07-16T20:48:05.720Z,4.60
2018-07-16T20:53:09.157Z,5.50
2018-07-16T20:58:12.806Z,5.00
2018-07-16T21:03:16.070Z,4.57
2018-07-16T21:08:19.268Z,7.10
2018-07-16T21:13:22.865Z,7.43
2018-07-16T21:18:26.079Z,7.63
2018-07-16T21:23:29.337Z,5.80
2018-07-16T21:28:32.680Z,5.77
2018-07-16T21:33:35.913Z,5.53
2018-07-16T21:38:39.111Z,6.80
2018-07-16T21:43:43.022Z,5.17
2018-07-16T21:48:46.273Z,6.03
2018-07-16T21:53:49.646Z,4.60
2018-07-16T21:58:53.407Z,5.27
2018-07-16T22:03:56.892Z,5.90
2018-07-16T22:09:00.033Z,5.10
2018-07-16T22:14:03.601Z,5.30
2018-07-16T22:19:06.933Z,4.90
2018-07-16T22:24:10.494Z,6.37
2018-07-16T22:29:14.018Z,4.37
2018-07-16T22:34:17.225Z,4.77
2018-07-16T22:39:20.447Z,5.57
2018-07-16T22:44:23.637Z,4.67
2018-07-16T22:49:26.863Z,5.83
2018-07-16T22:54:30.280Z,6.13
2018-07-16T22:59:34.000Z,6.33
2018-07-16T23:04:37.477Z,5.63
2018-07-16T23:09:41.080Z,7.03
2018-07-16T23:14:44.494Z,5.63
2018-07-16T23:19:48.289Z,6.50
2018-07-16T23:24:51.505Z,5.37
2018-07-16T23:29:55.941Z,6.10
2018-07-16T23:34:59.188Z,5.87
2018-07-16T23:40:02.673Z,5.70
2018-07-16T23:45:06.167Z,5.83
2018-07-16T23:50:09.704Z,5.53
2018-07-16T23:55:12.948Z,6.87
